sensor_id;sensor_type;location;lat;lon;timestamp;pressure;altitude;pressure_sealevel;temperature;humidity
73600;BME280;61877;48.246;9.220;2022-08-19T00:01:44;93755.09;;;17.04;92.19
73600;BME280;61877;48.246;9.220;2022-08-19T00:04:12;93755.47;;;17.02;92.17
73600;BME280;61877;48.246;9.220;2022-08-19T00:06:40;93745.78;;;17.08;91.77
73600;BME280;61877;48.246;9.220;2022-08-19T00:09:08;93746.56;;;17.09;90.68
73600;BME280;61877;48.246;9.220;2022-08-19T00:11:35;93738.84;;;17.18;90.31
73600;BME280;61877;48.246;9.220;2022-08-19T00:14:00;93728.75;;;17.15;91.06
73600;BME280;61877;48.246;9.220;2022-08-19T00:16:27;93729.53;;;17.12;90.62
73600;BME280;61877;48.246;9.220;2022-08-19T00:18:53;93723.72;;;17.10;90.38
73600;BME280;61877;48.246;9.220;2022-08-19T00:21:18;93733.44;;;17.14;90.43
73600;BME280;61877;48.246;9.220;2022-08-19T00:23:45;93728.41;;;17.13;89.86
73600;BME280;61877;48.246;9.220;2022-08-19T00:26:11;93735.34;;;17.17;90.61
73600;BME280;61877;48.246;9.220;2022-08-19T00:28:36;93751.22;;;17.19;90.00
73600;BME280;61877;48.246;9.220;2022-08-19T00:31:02;93764.00;;;17.11;90.52
73600;BME280;61877;48.246;9.220;2022-08-19T00:33:28;93774.06;;;17.07;90.77
73600;BME280;61877;48.246;9.220;2022-08-19T00:35:55;93774.47;;;17.06;89.50
73600;BME280;61877;48.246;9.220;2022-08-19T00:38:20;93776.00;;;17.07;90.96
73600;BME280;61877;48.246;9.220;2022-08-19T00:40:47;93769.81;;;17.06;90.93
73600;BME280;61877;48.246;9.220;2022-08-19T00:43:13;93769.41;;;17.01;91.36
73600;BME280;61877;48.246;9.220;2022-08-19T00:45:42;93767.47;;;16.98;90.84
73600;BME280;61877;48.246;9.220;2022-08-19T00:48:08;93755.84;;;16.94;90.46
73600;BME280;61877;48.246;9.220;2022-08-19T00:50:34;93746.53;;;16.95;90.47
73600;BME280;61877;48.246;9.220;2022-08-19T00:53:00;93758.16;;;16.95;90.21
73600;BME280;61877;48.246;9.220;2022-08-19T00:55:28;93755.84;;;16.94;90.37
73600;BME280;61877;48.246;9.220;2022-08-19T00:57:57;93757.00;;;16.89;90.61
73600;BME280;61877;48.246;9.220;2022-08-19T01:00:26;93748.13;;;16.96;90.86
73600;BME280;61877;48.246;9.220;2022-08-19T01:02:52;93736.50;;;16.95;90.35
73600;BME280;61877;48.246;9.220;2022-08-19T01:05:22;93741.13;;;16.95;90.53
73600;BME280;61877;48.246;9.220;2022-08-19T01:07:49;93754.69;;;17.05;90.45
73600;BME280;61877;48.246;9.220;2022-08-19T01:10:18;93758.97;;;16.99;90.89
73600;BME280;61877;48.246;9.220;2022-08-19T01:12:45;93757.75;;;16.90;89.74
73600;BME280;61877;48.246;9.220;2022-08-19T01:15:14;93763.56;;;16.92;90.99
73600;BME280;61877;48.246;9.220;2022-08-19T01:17:41;93764.34;;;16.89;91.85
73600;BME280;61877;48.246;9.220;2022-08-19T01:20:10;93755.81;;;16.87;91.86
73600;BME280;61877;48.246;9.220;2022-08-19T01:22:40;93753.88;;;16.84;92.09
73600;BME280;61877;48.246;9.220;2022-08-19T01:25:08;93763.19;;;16.83;91.56
73600;BME280;61877;48.246;9.220;2022-08-19T01:27:37;93767.41;;;16.80;92.03
73600;BME280;61877;48.246;9.220;2022-08-19T01:30:04;93772.09;;;16.80;92.77
73600;BME280;61877;48.246;9.220;2022-08-19T01:32:30;93767.03;;;16.74;92.29
73600;BME280;61877;48.246;9.220;2022-08-19T01:34:55;93772.06;;;16.76;92.28
73600;BME280;61877;48.246;9.220;2022-08-19T01:37:20;93771.69;;;16.77;92.30
73600;BME280;61877;48.246;9.220;2022-08-19T01:39:47;93768.59;;;16.79;92.56
73600;BME280;61877;48.246;9.220;2022-08-19T01:42:12;93770.13;;;16.76;92.78
73600;BME280;61877;48.246;9.220;2022-08-19T01:44:39;93767.41;;;16.76;92.64
73600;BME280;61877;48.246;9.220;2022-08-19T01:47:05;93761.22;;;16.69;92.82
73600;BME280;61877;48.246;9.220;2022-08-19T01:49:31;93755.78;;;16.65;92.53
73600;BME280;61877;48.246;9.220;2022-08-19T01:51:56;93757.31;;;16.66;92.85
73600;BME280;61877;48.246;9.220;2022-08-19T01:54:23;93760.44;;;16.68;93.25
73600;BME280;61877;48.246;9.220;2022-08-19T01:56:51;93768.16;;;16.66;93.56
73600;BME280;61877;48.246;9.220;2022-08-19T01:59:19;93762.34;;;16.61;93.09
73600;BME280;61877;48.246;9.220;2022-08-19T02:01:45;93765.06;;;16.64;92.95
73600;BME280;61877;48.246;9.220;2022-08-19T02:04:11;93767.78;;;16.64;93.08
73600;BME280;61877;48.246;9.220;2022-08-19T02:06:36;93765.81;;;16.61;93.22
73600;BME280;61877;48.246;9.220;2022-08-19T02:09:05;93765.03;;;16.57;93.11
73600;BME280;61877;48.246;9.220;2022-08-19T02:11:33;93760.41;;;16.54;93.54
73600;BME280;61877;48.246;9.220;2022-08-19T02:14:01;93749.56;;;16.61;92.98
73600;BME280;61877;48.246;9.220;2022-08-19T02:16:28;93749.97;;;16.63;92.55
73600;BME280;61877;48.246;9.220;2022-08-19T02:18:53;93740.69;;;16.64;92.83
73600;BME280;61877;48.246;9.220;2022-08-19T02:21:21;93744.53;;;16.63;93.43
73600;BME280;61877;48.246;9.220;2022-08-19T02:23:48;93744.91;;;16.58;93.48
73600;BME280;61877;48.246;9.220;2022-08-19T02:26:14;93744.13;;;16.51;93.56
73600;BME280;61877;48.246;9.220;2022-08-19T02:28:40;93737.56;;;16.55;93.72
73600;BME280;61877;48.246;9.220;2022-08-19T02:31:10;93740.28;;;16.55;93.76
73600;BME280;61877;48.246;9.220;2022-08-19T02:33:36;93738.72;;;16.51;92.88
73600;BME280;61877;48.246;9.220;2022-08-19T02:36:03;93735.63;;;16.49;92.20
73600;BME280;61877;48.246;9.220;2022-08-19T02:38:28;93737.94;;;16.50;91.30
73600;BME280;61877;48.246;9.220;2022-08-19T02:40:55;93730.25;;;16.59;92.06
73600;BME280;61877;48.246;9.220;2022-08-19T02:43:22;93724.84;;;16.63;91.92
73600;BME280;61877;48.246;9.220;2022-08-19T02:45:48;93733.31;;;16.61;92.33
73600;BME280;61877;48.246;9.220;2022-08-19T02:48:15;93734.84;;;16.48;92.64
73600;BME280;61877;48.246;9.220;2022-08-19T02:50:41;93739.44;;;16.44;92.67
73600;BME280;61877;48.246;9.220;2022-08-19T02:53:06;93739.41;;;16.34;93.26
73600;BME280;61877;48.246;9.220;2022-08-19T02:55:31;93754.13;;;16.36;93.67
73600;BME280;61877;48.246;9.220;2022-08-19T02:57:57;93749.47;;;16.37;93.54
73600;BME280;61877;48.246;9.220;2022-08-19T03:00:22;93746.00;;;16.36;93.74
73600;BME280;61877;48.246;9.220;2022-08-19T03:02:48;93726.28;;;16.39;94.13
73600;BME280;61877;48.246;9.220;2022-08-19T03:05:15;93730.91;;;16.39;93.83
73600;BME280;61877;48.246;9.220;2022-08-19T03:07:40;93725.88;;;16.37;93.25
73600;BME280;61877;48.246;9.220;2022-08-19T03:10:06;93724.72;;;16.38;93.46
73600;BME280;61877;48.246;9.220;2022-08-19T03:12:35;93732.44;;;16.40;94.20
73600;BME280;61877;48.246;9.220;2022-08-19T03:15:01;93730.88;;;16.35;93.08
73600;BME280;61877;48.246;9.220;2022-08-19T03:17:27;93737.09;;;16.36;93.16
73600;BME280;61877;48.246;9.220;2022-08-19T03:19:52;93737.88;;;16.36;93.02
73600;BME280;61877;48.246;9.220;2022-08-19T03:22:19;93739.81;;;16.39;92.88
73600;BME280;61877;48.246;9.220;2022-08-19T03:24:44;93751.78;;;16.38;92.11
73600;BME280;61877;48.246;9.220;2022-08-19T03:27:10;93738.25;;;16.38;92.39
73600;BME280;61877;48.246;9.220;2022-08-19T03:29:37;93741.75;;;16.39;91.91
73600;BME280;61877;48.246;9.220;2022-08-19T03:32:04;93739.44;;;16.41;92.80
73600;BME280;61877;48.246;9.220;2022-08-19T03:34:32;93734.38;;;16.32;92.58
73600;BME280;61877;48.246;9.220;2022-08-19T03:37:02;93744.03;;;16.26;92.97
73600;BME280;61877;48.246;9.220;2022-08-19T03:39:29;93746.75;;;16.30;93.70
73600;BME280;61877;48.246;9.220;2022-08-19T03:41:54;93753.66;;;16.20;93.97
73600;BME280;61877;48.246;9.220;2022-08-19T03:44:22;93755.56;;;16.16;93.54
73600;BME280;61877;48.246;9.220;2022-08-19T03:46:49;93759.44;;;16.19;93.79
73600;BME280;61877;48.246;9.220;2022-08-19T03:49:15;93748.63;;;16.19;93.83
73600;BME280;61877;48.246;9.220;2022-08-19T03:51:42;93748.63;;;16.22;93.53
73600;BME280;61877;48.246;9.220;2022-08-19T03:54:12;93742.06;;;16.20;93.65
73600;BME280;61877;48.246;9.220;2022-08-19T03:56:41;93745.53;;;16.20;94.15
73600;BME280;61877;48.246;9.220;2022-08-19T03:59:09;93744.78;;;16.20;93.81
73600;BME280;61877;48.246;9.220;2022-08-19T04:01:35;93738.94;;;16.14;92.96
73600;BME280;61877;48.246;9.220;2022-08-19T04:04:01;93739.72;;;16.15;93.75
73600;BME280;61877;48.246;9.220;2022-08-19T04:06:29;93741.63;;;16.14;94.12
73600;BME280;61877;48.246;9.220;2022-08-19T04:08:57;93733.91;;;16.16;94.07
73600;BME280;61877;48.246;9.220;2022-08-19T04:11:24;93726.19;;;16.18;94.25
73600;BME280;61877;48.246;9.220;2022-08-19T04:13:52;93725.03;;;16.16;93.78
73600;BME280;61877;48.246;9.220;2022-08-19T04:16:18;93718.84;;;16.19;93.47
73600;BME280;61877;48.246;9.220;2022-08-19T04:18:44;93718.84;;;16.19;93.32
73600;BME280;61877;48.246;9.220;2022-08-19T04:21:15;93727.38;;;16.21;93.67
73600;BME280;61877;48.246;9.220;2022-08-19T04:23:41;93733.56;;;16.25;93.53
73600;BME280;61877;48.246;9.220;2022-08-19T04:26:06;93738.59;;;16.26;92.96
73600;BME280;61877;48.246;9.220;2022-08-19T04:28:32;93740.94;;;16.28;92.69
73600;BME280;61877;48.246;9.220;2022-08-19T04:31:01;93743.25;;;16.29;92.44
73600;BME280;61877;48.246;9.220;2022-08-19T04:33:27;93740.19;;;16.34;92.68
73600;BME280;61877;48.246;9.220;2022-08-19T04:35:52;93746.75;;;16.37;93.29
73600;BME280;61877;48.246;9.220;2022-08-19T04:38:20;93744.44;;;16.35;93.03
73600;BME280;61877;48.246;9.220;2022-08-19T04:40:48;93744.44;;;16.35;91.77
73600;BME280;61877;48.246;9.220;2022-08-19T04:43:14;93749.84;;;16.39;91.36
73600;BME280;61877;48.246;9.220;2022-08-19T04:45:39;93758.38;;;16.41;90.12
73600;BME280;61877;48.246;9.220;2022-08-19T04:48:06;93750.28;;;16.44;90.22
73600;BME280;61877;48.246;9.220;2022-08-19T04:50:31;93751.03;;;16.41;90.75
73600;BME280;61877;48.246;9.220;2022-08-19T04:52:57;93755.75;;;16.51;89.87
73600;BME280;61877;48.246;9.220;2022-08-19T04:55:22;93759.63;;;16.57;90.18
73600;BME280;61877;48.246;9.220;2022-08-19T04:57:48;93765.81;;;16.61;91.07
73600;BME280;61877;48.246;9.220;2022-08-19T05:00:14;93777.81;;;16.60;89.99
73600;BME280;61877;48.246;9.220;2022-08-19T05:02:40;93790.22;;;16.68;90.21
73600;BME280;61877;48.246;9.220;2022-08-19T05:05:07;93808.41;;;16.71;89.89
73600;BME280;61877;48.246;9.220;2022-08-19T05:07:33;93810.75;;;16.73;90.47
73600;BME280;61877;48.246;9.220;2022-08-19T05:09:58;93817.75;;;16.77;91.29
73600;BME280;61877;48.246;9.220;2022-08-19T05:12:24;93805.72;;;16.75;90.50
73600;BME280;61877;48.246;9.220;2022-08-19T05:14:50;93808.84;;;16.81;88.90
73600;BME280;61877;48.246;9.220;2022-08-19T05:17:15;93816.56;;;16.78;89.96
73600;BME280;61877;48.246;9.220;2022-08-19T05:19:40;93812.31;;;16.77;89.31
73600;BME280;61877;48.246;9.220;2022-08-19T05:22:07;93817.34;;;16.79;88.40
73600;BME280;61877;48.246;9.220;2022-08-19T05:24:33;93815.44;;;16.87;88.89
73600;BME280;61877;48.246;9.220;2022-08-19T05:26:58;93822.41;;;16.84;89.03
73600;BME280;61877;48.246;9.220;2022-08-19T05:29:26;93813.50;;;16.87;87.50
73600;BME280;61877;48.246;9.220;2022-08-19T05:31:52;93817.78;;;16.92;87.91
73600;BME280;61877;48.246;9.220;2022-08-19T05:34:19;93822.41;;;16.84;88.69
73600;BME280;61877;48.246;9.220;2022-08-19T05:36:45;93814.69;;;16.97;88.01
73600;BME280;61877;48.246;9.220;2022-08-19T05:39:14;93816.63;;;17.00;88.38
73600;BME280;61877;48.246;9.220;2022-08-19T05:41:59;93812.34;;;16.92;88.55
73600;BME280;61877;48.246;9.220;2022-08-19T05:44:26;93815.09;;;16.99;87.56
73600;BME280;61877;48.246;9.220;2022-08-19T05:46:52;93822.41;;;16.95;88.04
73600;BME280;61877;48.246;9.220;2022-08-19T05:49:18;93815.88;;;16.99;87.90
73600;BME280;61877;48.246;9.220;2022-08-19T05:51:44;93820.13;;;17.00;87.46
73600;BME280;61877;48.246;9.220;2022-08-19T05:54:09;93824.00;;;17.03;86.86
73600;BME280;61877;48.246;9.220;2022-08-19T05:56:36;93819.78;;;17.12;86.67
73600;BME280;61877;48.246;9.220;2022-08-19T05:59:05;93825.94;;;17.06;86.51
73600;BME280;61877;48.246;9.220;2022-08-19T06:01:31;93817.03;;;17.05;86.67
73600;BME280;61877;48.246;9.220;2022-08-19T06:03:56;93810.88;;;17.19;85.79
73600;BME280;61877;48.246;9.220;2022-08-19T06:06:22;93815.13;;;17.16;85.87
73600;BME280;61877;48.246;9.220;2022-08-19T06:08:47;93815.91;;;17.24;86.54
73600;BME280;61877;48.246;9.220;2022-08-19T06:11:16;93822.50;;;17.33;84.35
73600;BME280;61877;48.246;9.220;2022-08-19T06:13:44;93813.22;;;17.27;85.68
73600;BME280;61877;48.246;9.220;2022-08-19T06:16:10;93814.38;;;17.30;85.63
73600;BME280;61877;48.246;9.220;2022-08-19T06:18:35;93814.38;;;17.33;85.36
73600;BME280;61877;48.246;9.220;2022-08-19T06:21:01;93805.47;;;17.33;84.44
73600;BME280;61877;48.246;9.220;2022-08-19T06:23:26;93807.03;;;17.37;83.61
73600;BME280;61877;48.246;9.220;2022-08-19T06:25:51;93814.78;;;17.35;84.84
73600;BME280;61877;48.246;9.220;2022-08-19T06:28:17;93817.88;;;17.37;84.19
73600;BME280;61877;48.246;9.220;2022-08-19T06:30:44;93815.94;;;17.31;84.19
73600;BME280;61877;48.246;9.220;2022-08-19T06:33:09;93824.84;;;17.42;84.73
73600;BME280;61877;48.246;9.220;2022-08-19T06:35:38;93820.22;;;17.56;84.78
73600;BME280;61877;48.246;9.220;2022-08-19T06:38:04;93824.09;;;17.48;84.07
73600;BME280;61877;48.246;9.220;2022-08-19T06:40:29;93821.00;;;17.50;84.73
73600;BME280;61877;48.246;9.220;2022-08-19T06:42:54;93828.78;;;17.62;83.44
73600;BME280;61877;48.246;9.220;2022-08-19T06:45:20;93836.91;;;17.62;82.62
73600;BME280;61877;48.246;9.220;2022-08-19T06:47:47;93835.75;;;17.56;84.08
73600;BME280;61877;48.246;9.220;2022-08-19T06:50:12;93830.34;;;17.56;83.29
73600;BME280;61877;48.246;9.220;2022-08-19T06:52:38;93841.16;;;17.45;84.86
73600;BME280;61877;48.246;9.220;2022-08-19T06:55:04;93844.22;;;17.44;83.29
73600;BME280;61877;48.246;9.220;2022-08-19T06:57:29;93841.53;;;17.44;83.12
73600;BME280;61877;48.246;9.220;2022-08-19T06:59:55;93841.13;;;17.42;83.78
73600;BME280;61877;48.246;9.220;2022-08-19T07:02:20;93829.47;;;17.38;85.64
73600;BME280;61877;48.246;9.220;2022-08-19T07:04:47;93833.38;;;17.37;84.05
73600;BME280;61877;48.246;9.220;2022-08-19T07:07:14;93835.28;;;17.36;83.21
73600;BME280;61877;48.246;9.220;2022-08-19T07:09:42;93834.09;;;17.13;84.74
73600;BME280;61877;48.246;9.220;2022-08-19T07:12:09;93819.41;;;17.28;84.35
73600;BME280;61877;48.246;9.220;2022-08-19T07:14:36;93823.28;;;17.34;83.04
73600;BME280;61877;48.246;9.220;2022-08-19T07:17:01;93827.91;;;17.26;84.33
73600;BME280;61877;48.246;9.220;2022-08-19T07:19:28;93827.19;;;17.43;82.79
73600;BME280;61877;48.246;9.220;2022-08-19T07:21:55;93836.50;;;17.53;83.56
73600;BME280;61877;48.246;9.220;2022-08-19T07:24:22;93838.06;;;17.47;82.33
73600;BME280;61877;48.246;9.220;2022-08-19T07:26:48;93843.50;;;17.50;83.21
73600;BME280;61877;48.246;9.220;2022-08-19T07:29:13;93838.81;;;17.54;82.83
73600;BME280;61877;48.246;9.220;2022-08-19T07:31:39;93840.34;;;17.45;83.48
73600;BME280;61877;48.246;9.220;2022-08-19T07:34:06;93832.63;;;17.50;83.11
73600;BME280;61877;48.246;9.220;2022-08-19T07:36:33;93834.91;;;17.41;82.70
73600;BME280;61877;48.246;9.220;2022-08-19T07:39:05;93841.91;;;17.42;83.46
73600;BME280;61877;48.246;9.220;2022-08-19T07:41:31;93839.19;;;17.42;83.50
73600;BME280;61877;48.246;9.220;2022-08-19T07:43:57;93847.72;;;17.37;84.79
73600;BME280;61877;48.246;9.220;2022-08-19T07:46:22;93850.00;;;17.32;85.61
73600;BME280;61877;48.246;9.220;2022-08-19T07:48:49;93846.53;;;17.35;85.38
73600;BME280;61877;48.246;9.220;2022-08-19T07:51:19;93850.41;;;17.34;85.22
73600;BME280;61877;48.246;9.220;2022-08-19T07:53:47;93855.03;;;17.30;86.26
73600;BME280;61877;48.246;9.220;2022-08-19T07:56:14;93851.19;;;17.27;86.13
73600;BME280;61877;48.246;9.220;2022-08-19T07:58:42;93844.94;;;17.20;85.97
73600;BME280;61877;48.246;9.220;2022-08-19T08:01:13;93845.72;;;17.17;85.77
73600;BME280;61877;48.246;9.220;2022-08-19T08:03:39;93843.00;;;17.17;86.89
73600;BME280;61877;48.246;9.220;2022-08-19T08:06:05;93836.41;;;17.04;86.65
73600;BME280;61877;48.246;9.220;2022-08-19T08:08:31;93848.03;;;17.04;87.09
73600;BME280;61877;48.246;9.220;2022-08-19T08:10:57;93846.84;;;17.05;87.65
73600;BME280;61877;48.246;9.220;2022-08-19T08:13:24;93844.16;;;17.05;86.92
73600;BME280;61877;48.246;9.220;2022-08-19T08:15:49;93848.41;;;16.99;88.43
73600;BME280;61877;48.246;9.220;2022-08-19T08:18:15;93848.00;;;17.01;87.63
73600;BME280;61877;48.246;9.220;2022-08-19T08:20:40;93848.41;;;17.03;88.54
73600;BME280;61877;48.246;9.220;2022-08-19T08:23:06;93851.50;;;17.05;88.70
73600;BME280;61877;48.246;9.220;2022-08-19T08:25:31;93855.38;;;17.04;88.77
73600;BME280;61877;48.246;9.220;2022-08-19T08:28:00;93856.16;;;17.15;88.63
73600;BME280;61877;48.246;9.220;2022-08-19T08:30:29;93860.06;;;17.21;87.54
73600;BME280;61877;48.246;9.220;2022-08-19T08:32:56;93863.53;;;17.11;87.31
73600;BME280;61877;48.246;9.220;2022-08-19T08:35:22;93862.41;;;17.26;86.93
73600;BME280;61877;48.246;9.220;2022-08-19T08:37:50;93865.50;;;17.28;87.08
73600;BME280;61877;48.246;9.220;2022-08-19T08:40:20;93870.91;;;17.28;86.95
73600;BME280;61877;48.246;9.220;2022-08-19T08:42:51;93868.97;;;17.25;86.95
73600;BME280;61877;48.246;9.220;2022-08-19T08:45:20;93872.88;;;17.34;86.44
73600;BME280;61877;48.246;9.220;2022-08-19T08:47:49;93876.34;;;17.21;87.30
73600;BME280;61877;48.246;9.220;2022-08-19T08:50:22;93875.53;;;17.17;86.44
73600;BME280;61877;48.246;9.220;2022-08-19T08:52:53;93871.69;;;17.18;87.49
73600;BME280;61877;48.246;9.220;2022-08-19T08:55:24;93875.13;;;17.15;87.22
73600;BME280;61877;48.246;9.220;2022-08-19T08:57:55;93879.44;;;17.19;87.68
73600;BME280;61877;48.246;9.220;2022-08-19T09:00:25;93880.59;;;17.22;87.98
73600;BME280;61877;48.246;9.220;2022-08-19T09:02:53;93882.91;;;17.23;85.98
73600;BME280;61877;48.246;9.220;2022-08-19T09:05:19;93885.22;;;17.21;86.62
73600;BME280;61877;48.246;9.220;2022-08-19T09:07:51;93884.84;;;17.16;88.69
73600;BME280;61877;48.246;9.220;2022-08-19T09:10:22;93883.69;;;17.24;88.38
73600;BME280;61877;48.246;9.220;2022-08-19T09:12:59;93884.47;;;17.24;87.60
73600;BME280;61877;48.246;9.220;2022-08-19T09:15:32;93894.53;;;17.24;87.61
73600;BME280;61877;48.246;9.220;2022-08-19T09:18:03;93890.25;;;17.16;88.27
73600;BME280;61877;48.246;9.220;2022-08-19T09:20:29;93894.09;;;17.11;87.85
73600;BME280;61877;48.246;9.220;2022-08-19T09:22:54;93893.72;;;17.09;88.29
73600;BME280;61877;48.246;9.220;2022-08-19T09:25:22;93897.22;;;17.06;88.68
73600;BME280;61877;48.246;9.220;2022-08-19T09:27:48;93892.94;;;17.05;88.74
73600;BME280;61877;48.246;9.220;2022-08-19T09:30:17;93897.56;;;17.05;88.77
73600;BME280;61877;48.246;9.220;2022-08-19T09:32:43;93894.78;;;16.87;89.17
73600;BME280;61877;48.246;9.220;2022-08-19T09:35:11;93895.19;;;16.86;90.10
73600;BME280;61877;48.246;9.220;2022-08-19T09:37:38;93888.22;;;16.92;89.60
73600;BME280;61877;48.246;9.220;2022-08-19T09:40:04;93886.69;;;16.91;89.85
73600;BME280;61877;48.246;9.220;2022-08-19T09:42:30;93894.41;;;16.89;90.65
73600;BME280;61877;48.246;9.220;2022-08-19T09:44:56;93890.19;;;16.91;89.83
73600;BME280;61877;48.246;9.220;2022-08-19T09:47:21;93888.25;;;16.99;89.27
73600;BME280;61877;48.246;9.220;2022-08-19T09:49:46;93902.22;;;17.01;89.89
73600;BME280;61877;48.246;9.220;2022-08-19T09:52:13;93894.41;;;16.89;89.52
73600;BME280;61877;48.246;9.220;2022-08-19T09:54:39;93899.03;;;16.77;90.33
73600;BME280;61877;48.246;9.220;2022-08-19T09:57:04;93898.22;;;16.73;90.83
73600;BME280;61877;48.246;9.220;2022-08-19T09:59:30;93905.94;;;16.71;91.01
73600;BME280;61877;48.246;9.220;2022-08-19T10:01:55;93897.81;;;16.71;91.06
73600;BME280;61877;48.246;9.220;2022-08-19T10:04:23;93911.78;;;16.77;91.06
73600;BME280;61877;48.246;9.220;2022-08-19T10:06:49;93911.38;;;16.75;90.94
73600;BME280;61877;48.246;9.220;2022-08-19T10:09:17;93914.91;;;16.83;90.95
73600;BME280;61877;48.246;9.220;2022-08-19T10:11:44;93913.72;;;16.80;90.20
73600;BME280;61877;48.246;9.220;2022-08-19T10:14:09;93915.28;;;16.77;91.20
73600;BME280;61877;48.246;9.220;2022-08-19T10:16:36;93912.56;;;16.77;90.88
73600;BME280;61877;48.246;9.220;2022-08-19T10:19:02;93918.38;;;16.83;90.23
73600;BME280;61877;48.246;9.220;2022-08-19T10:21:30;93910.25;;;16.83;90.12
73600;BME280;61877;48.246;9.220;2022-08-19T10:23:57;93914.88;;;16.75;91.17
73600;BME280;61877;48.246;9.220;2022-08-19T10:26:27;93907.53;;;16.76;90.89
73600;BME280;61877;48.246;9.220;2022-08-19T10:28:52;93917.19;;;16.73;90.36
73600;BME280;61877;48.246;9.220;2022-08-19T10:31:20;93920.63;;;16.67;91.30
73600;BME280;61877;48.246;9.220;2022-08-19T10:33:46;93915.22;;;16.67;91.36
73600;BME280;61877;48.246;9.220;2022-08-19T10:36:14;93917.53;;;16.68;91.77
73600;BME280;61877;48.246;9.220;2022-08-19T10:38:40;93913.66;;;16.66;91.85
73600;BME280;61877;48.246;9.220;2022-08-19T10:41:07;93916.38;;;16.66;91.89
73600;BME280;61877;48.246;9.220;2022-08-19T10:43:34;93927.53;;;16.57;91.75
73600;BME280;61877;48.246;9.220;2022-08-19T10:46:00;93922.56;;;16.66;91.92
73600;BME280;61877;48.246;9.220;2022-08-19T10:48:25;93927.59;;;16.64;91.88
73600;BME280;61877;48.246;9.220;2022-08-19T10:50:51;93926.06;;;16.70;91.82
73600;BME280;61877;48.246;9.220;2022-08-19T10:53:16;93930.72;;;16.73;92.23
73600;BME280;61877;48.246;9.220;2022-08-19T10:55:41;93938.09;;;16.76;92.30
73600;BME280;61877;48.246;9.220;2022-08-19T10:58:11;93929.94;;;16.73;91.07
73600;BME280;61877;48.246;9.220;2022-08-19T11:00:37;93936.56;;;16.79;92.54
73600;BME280;61877;48.246;9.220;2022-08-19T11:03:03;93931.19;;;16.90;91.52
73600;BME280;61877;48.246;9.220;2022-08-19T11:05:28;93942.06;;;16.97;90.83
73600;BME280;61877;48.246;9.220;2022-08-19T11:07:54;93938.59;;;17.00;90.25
73600;BME280;61877;48.246;9.220;2022-08-19T11:10:19;93933.94;;;16.97;91.36
73600;BME280;61877;48.246;9.220;2022-08-19T11:12:45;93935.50;;;17.05;90.67
73600;BME280;61877;48.246;9.220;2022-08-19T11:15:10;93936.38;;;17.23;91.62
73600;BME280;61877;48.246;9.220;2022-08-19T11:17:37;93938.69;;;17.28;90.55
73600;BME280;61877;48.246;9.220;2022-08-19T11:20:03;93943.38;;;17.38;89.37
73600;BME280;61877;48.246;9.220;2022-08-19T11:22:29;93945.69;;;17.29;89.91
73600;BME280;61877;48.246;9.220;2022-08-19T11:24:54;93948.81;;;17.31;89.63
73600;BME280;61877;48.246;9.220;2022-08-19T11:27:19;93955.72;;;17.18;89.87
73600;BME280;61877;48.246;9.220;2022-08-19T11:29:45;93951.03;;;17.15;88.00
73600;BME280;61877;48.246;9.220;2022-08-19T11:32:10;93948.31;;;17.11;88.75
73600;BME280;61877;48.246;9.220;2022-08-19T11:34:37;93952.16;;;17.03;89.10
73600;BME280;61877;48.246;9.220;2022-08-19T11:37:03;93953.31;;;16.99;89.83
73600;BME280;61877;48.246;9.220;2022-08-19T11:39:30;93952.94;;;17.04;90.31
73600;BME280;61877;48.246;9.220;2022-08-19T11:41:58;93951.03;;;17.08;89.24
73600;BME280;61877;48.246;9.220;2022-08-19T11:44:24;93949.47;;;17.10;89.26
73600;BME280;61877;48.246;9.220;2022-08-19T11:46:49;93947.06;;;16.95;88.51
73600;BME280;61877;48.246;9.220;2022-08-19T11:49:16;93960.19;;;16.82;89.51
73600;BME280;61877;48.246;9.220;2022-08-19T11:51:44;93967.00;;;16.58;90.06
73600;BME280;61877;48.246;9.220;2022-08-19T11:54:10;93961.53;;;16.48;91.14
73600;BME280;61877;48.246;9.220;2022-08-19T11:56:37;93972.28;;;16.41;91.06
73600;BME280;61877;48.246;9.220;2022-08-19T11:59:02;93976.13;;;16.36;90.56
73600;BME280;61877;48.246;9.220;2022-08-19T12:01:28;93975.28;;;16.29;90.68
73600;BME280;61877;48.246;9.220;2022-08-19T12:03:55;93982.59;;;16.28;91.42
73600;BME280;61877;48.246;9.220;2022-08-19T12:06:23;93975.25;;;16.25;91.25
73600;BME280;61877;48.246;9.220;2022-08-19T12:08:50;93980.69;;;16.29;90.58
73600;BME280;61877;48.246;9.220;2022-08-19T12:11:16;93974.47;;;16.21;90.90
73600;BME280;61877;48.246;9.220;2022-08-19T12:13:41;93971.78;;;16.25;89.65
73600;BME280;61877;48.246;9.220;2022-08-19T12:16:08;93975.94;;;16.15;89.82
73600;BME280;61877;48.246;9.220;2022-08-19T12:18:33;93977.09;;;16.14;90.49
73600;BME280;61877;48.246;9.220;2022-08-19T12:20:59;93965.94;;;16.19;90.90
73600;BME280;61877;48.246;9.220;2022-08-19T12:23:24;93972.13;;;16.20;91.24
73600;BME280;61877;48.246;9.220;2022-08-19T12:25:51;93975.63;;;16.24;91.69
73600;BME280;61877;48.246;9.220;2022-08-19T12:28:17;93975.31;;;16.32;91.84
73600;BME280;61877;48.246;9.220;2022-08-19T12:30:43;93974.94;;;16.34;92.26
73600;BME280;61877;48.246;9.220;2022-08-19T12:33:08;93978.84;;;16.36;91.96
73600;BME280;61877;48.246;9.220;2022-08-19T12:35:34;93974.91;;;16.30;93.29
73600;BME280;61877;48.246;9.220;2022-08-19T12:37:59;93975.00;;;16.41;93.94
73600;BME280;61877;48.246;9.220;2022-08-19T12:40:25;93972.31;;;16.44;94.14
73600;BME280;61877;48.246;9.220;2022-08-19T12:42:52;93970.34;;;16.45;94.37
73600;BME280;61877;48.246;9.220;2022-08-19T12:45:17;93975.03;;;16.44;94.11
73600;BME280;61877;48.246;9.220;2022-08-19T12:47:43;93968.88;;;16.47;93.97
73600;BME280;61877;48.246;9.220;2022-08-19T12:50:08;93969.31;;;16.53;94.46
73600;BME280;61877;48.246;9.220;2022-08-19T12:52:37;93969.31;;;16.56;94.35
73600;BME280;61877;48.246;9.220;2022-08-19T12:55:05;93968.22;;;16.64;94.44
73600;BME280;61877;48.246;9.220;2022-08-19T12:57:30;93970.22;;;16.74;94.41